ベイルート の空港の天気 - METARとTAF

ラフィク・ハリリ国際空港 ( OLBA / BEY ) - レバノン ベイルート
飛行場実況気象(Metar)
観測時間09/27 00:00 EEST (09/26 21:00 UTC)
風向・風速東南東 2m/s
視程8000m
天気現象
全天の8割程度の雲 雲底高度 980m
気温27℃
湿度62%
気圧1014hPa
METAROLBA 262100Z 12003KT 8000 BKN032 27/19 Q1014 NOSIG
過去の天気等 Google飛行場航空写真 Wunderground天気予報

過去48時間のMETAR

飛行場予報(TAF)
発表時間: 9/26 19:00 EEST (9/26 16:00 UTC)
予報対象時間: 26日21時 EEST ~ 28日3時 EEST
風向・風速不定 2m/s
視程8000m
全天の4割程度の雲 雲底高度 730m
26日21時 EEST ~ 27日3時 EEST に一時的に
視程5000m
天気現象もや
27日12時 EEST ~ 27日15時 EEST に徐々に
風向・風速北 5m/s 瞬間風速 13m/s
少しの雲 雲底高度 790m
28日0時 EEST ~ 28日3時 EEST に徐々に
風向・風速不定 2m/s
TAF OLBA 261600Z 2618/2724 VRB03KT 8000 SCT024
TEMPO 2618/2624 5000 BR
BECMG 2709/2712 36010G25KT FEW026
BECMG 2721/2724 VRB03KT